logo
Rechercher aéroport 
image banner adimage banner adimage banner ad
image banner ad

SJLZ - Coperjava

Situé à Formoso Do Araguaia, Brazil

ICAO - SJLZ, IATA -

Données fournies par Airmate  

Information générale

Coordonnées: S11°50'6" W49°42'44"
Élévation : 629 feet MSL.
Variation magnétique : -21.169455177° East
Voir autres Aéroports à Tocatins

Données opérationnelles

Special qualification required
Heure actuelle UTC:
Heure actuelle locale:
Météo à : - ( 0 km )
METAR: PATQ 220822Z AUTO 06017KT 4SM UP BR OVC007 M04/M05 A2995 RMK AO2 UPB19SNE19 P0000 FZRANO TSNO
Voir NOTAMs / SUP AIP / TFR affectant cet aéroport [VIEW]
Fréquences de communication: [VIEW]

Pistes:

Identifiant RWYQFULongueur (ft)Largeur (ft)SurfaceLDA (ft)
18295398GRAVEL
36295398GRAVEL

Coordonnées de l'aéroport

Adresse: Formoso Do Araguaia Brazil

Vue satellite de SJLZ